Latest Weather Observations for Lord Howe Island

IDN60801

Issued at 5:02 pm EST Saturday 22 September 2018 (issued every 10 minutes, with the page automatically refreshed every 10 minutes)

About weather observations | Map of weather stations | Latest weather observations for NSW | Other Formats
Station Details ID: 200839 Name: LORD HOWE ISLAND AERO Lat: -31.54 Lon: 159.08 Height: 5.0 m
Data from the previous 72 hours. | See also: Recent months at Lord Howe Island
Date/Time
EST
Temp
°C
App
Temp
°C
Dew
Point
°C
Rel
Hum
%
Delta-T
°C
Wind Press
QNH
hPa
Press
MSL
hPa
Rain since
9am
mm
Dir  Spd
km/h
Gust
km/h
Spd
kts
Gust
kts
22/05:00pm 16.8 15.4 9.7 63 3.7 ESE 7 20 4 11 1024.6 - 0.0
22/04:30pm 17.2 13.5 9.4 60 4.1 SSW 19 28 10 15 1024.4 - 0.0
22/04:00pm 17.7 15.3 10.1 61 4.0 ESE 13 24 7 13 1024.3 - 0.0
22/03:30pm 18.2 14.7 10.1 59 4.3 E 19 28 10 15 1024.2 - 0.0
22/03:00pm 18.4 16.4 10.0 58 4.5 S 11 20 6 11 1024.4 - 0.0
22/02:30pm 18.6 15.0 10.4 59 4.4 E 20 32 11 17 1024.5 1024.5 0.0
22/02:00pm 18.1 15.4 8.9 55 4.8 S 13 22 7 12 1024.7 - 0.0
22/01:30pm 18.5 16.8 9.8 57 4.6 SW 9 19 5 10 1024.9 - 0.0
22/01:00pm 19.0 16.7 10.3 57 4.7 SSE 13 24 7 13 1025.1 - 0.0
22/12:30pm 18.8 16.5 10.4 58 4.5 SW 13 20 7 11 1025.3 - 0.0
22/12:00pm 18.3 16.1 9.4 56 4.7 S 11 20 6 11 1025.7 - 0.0
22/11:30am 18.0 15.6 10.1 60 4.2 SW 13 26 7 14 1026.0 1026.0 0.0
22/11:00am 18.6 16.7 10.4 59 4.4 SSW 11 20 6 11 1026.3 - 0.0
22/10:30am 17.9 15.7 9.5 58 4.4 SW 11 19 6 10 1026.4 - 0.0
22/10:00am 18.0 16.3 9.9 59 4.3 SSW 9 17 5 9 1026.6 - 0.0
22/09:30am 17.4 15.1 9.1 58 4.3 SW 11 19 6 10 1026.6 - 0.0
22/09:00am 17.3 14.8 9.7 61 4.0 SW 13 19 7 10 1026.5 - 0.0
22/08:30am 17.6 15.5 9.8 60 4.1 SW 11 17 6 9 1026.3 1026.3 0.2
22/08:00am 17.3 15.6 9.7 61 4.0 SW 9 17 5 9 1026.2 - 0.2
22/07:30am 17.4 14.9 9.6 60 4.1 WSW 13 24 7 13 1026.1 - 0.2
22/07:00am 16.9 16.5 11.0 68 3.2 SE 4 15 2 8 1025.9 - 0.2
22/06:30am 16.5 15.3 10.4 67 3.2 ESE 7 17 4 9 1025.7 - 0.2
22/06:00am 16.6 14.9 9.8 64 3.6 SW 9 22 5 12 1025.4 - 0.2
22/05:30am 16.6 14.8 9.5 63 3.7 SSW 9 20 5 11 1025.0 1025.0 0.2
22/05:00am 16.6 14.4 9.5 63 3.7 S 11 28 6 15 1024.8 - 0.2
22/04:30am 16.4 13.7 8.9 61 3.9 SSW 13 24 7 13 1024.6 - 0.2
22/04:00am 16.7 12.7 8.1 57 4.4 S 19 32 10 17 1024.6 - 0.2
22/03:30am 16.7 13.9 8.7 59 4.1 S 13 26 7 14 1024.4 - 0.2
22/03:00am 16.7 13.9 8.7 59 4.1 SW 13 35 7 19 1024.3 - 0.2
22/02:30am 16.8 13.4 9.0 60 4.0 SSW 17 24 9 13 1024.4 1024.4 0.2
22/02:00am 16.8 12.9 8.8 59 4.1 SSW 19 28 10 15 1024.5 - 0.2
22/01:30am 16.6 12.1 8.6 59 4.1 SSW 22 33 12 18 1024.9 - 0.2
22/01:00am 16.7 12.3 7.6 55 4.6 S 20 35 11 19 1025.1 - 0.2
22/12:30am 16.7 12.7 8.9 60 4.0 SSW 20 35 11 19 1025.2 - 0.2
22/12:00am 16.7 12.3 9.1 61 3.9 SSW 22 35 12 19 1025.3 - 0.2
 
Date/Time
EST
Temp
°C
App
Temp
°C
Dew
Point
°C
Rel
Hum
%
Delta-T
°C
Wind Press
QNH
hPa
Press
MSL
hPa
Rain since
9am
mm
Dir  Spd
km/h
Gust
km/h
Spd
kts
Gust
kts
21/11:30pm 16.9 12.7 8.3 57 4.4 SSW 20 33 11 18 1025.2 1025.2 0.2
21/11:00pm 16.5 12.2 7.7 56 4.4 SSW 20 32 11 17 1025.2 - 0.2
21/10:30pm 16.8 12.0 8.8 59 4.1 SSW 24 43 13 23 1024.9 - 0.2
21/10:00pm 16.8 13.5 9.7 63 3.7 SW 17 32 9 17 1024.7 - 0.2
21/09:30pm 16.8 12.9 9.5 62 3.8 SSW 20 35 11 19 1024.5 - 0.2
21/09:00pm 16.8 13.4 9.2 61 3.9 SSW 17 30 9 16 1024.3 - 0.2
21/08:30pm 16.7 12.5 8.4 58 4.2 SSW 20 43 11 23 1024.4 1024.4 0.2
21/08:00pm 16.6 12.9 8.1 57 4.3 SSW 17 41 9 22 1024.3 - 0.2
21/07:30pm 16.6 11.7 6.7 52 4.9 SSW 22 37 12 20 1024.1 - 0.2
21/07:00pm 16.4 11.9 7.1 54 4.6 SSW 20 41 11 22 1023.9 - 0.2
21/06:30pm 16.5 11.0 7.4 55 4.5 SSW 26 44 14 24 1023.6 - 0.2
21/06:00pm 16.4 11.7 9.1 62 3.8 SSW 24 44 13 24 1023.1 - 0.2
21/05:30pm 16.1 11.6 8.6 61 3.8 SSW 22 35 12 19 1022.8 1022.8 0.2
21/05:00pm 16.4 12.2 9.8 65 3.5 SSW 22 37 12 20 1022.4 - 0.2
21/04:30pm 16.6 11.7 8.6 59 4.1 SSW 24 37 13 20 1022.1 - 0.2
21/04:00pm 17.2 13.0 8.1 55 4.6 SSW 20 32 11 17 1021.9 - 0.2
21/03:30pm 17.2 12.5 9.1 59 4.2 SSW 24 37 13 20 1021.7 - 0.2
21/03:00pm 17.2 12.9 9.4 60 4.1 SSW 22 41 12 22 1021.6 - 0.2
21/02:30pm 16.7 13.0 10.1 65 3.5 SSW 20 33 11 18 1021.7 1021.7 0.2
21/02:00pm 15.7 12.3 10.7 72 2.7 SSW 19 33 10 18 1021.8 - 0.2
21/01:30pm 17.8 14.2 9.7 59 4.3 SSW 19 28 10 15 1021.8 - 0.2
21/01:00pm 17.8 13.8 9.2 57 4.5 SW 20 37 11 20 1021.9 - 0.2
21/12:30pm 18.0 13.7 10.6 62 4.0 SSW 24 39 13 21 1021.9 - 0.2
21/12:00pm 17.3 12.3 7.9 54 4.8 SSW 24 39 13 21 1022.1 - 0.2
21/11:30am 18.1 13.6 8.4 53 5.0 SW 22 37 12 20 1022.2 1022.2 0.2
21/11:00am 18.2 14.2 9.0 55 4.8 SSW 20 33 11 18 1022.2 - 0.2
21/10:30am 17.4 15.1 10.3 63 3.8 SW 13 20 7 11 1022.4 - 0.0
21/10:00am 17.1 13.0 8.8 58 4.3 SW 20 32 11 17 1022.3 - 0.0
21/09:30am 17.6 13.1 8.7 56 4.6 SSW 22 39 12 21 1022.4 - 0.0
21/09:00am 17.0 12.8 7.6 54 4.7 SSW 19 35 10 19 1022.1 - 0.0
21/08:30am 17.1 12.5 8.3 56 4.5 SSW 22 33 12 18 1022.0 1022.0 8.0
21/08:00am 16.2 11.6 8.2 59 4.0 SSW 22 37 12 20 1021.7 - 8.0
21/07:30am 16.5 10.8 6.6 52 4.9 SSW 26 43 14 23 1021.6 - 8.0
21/07:00am 16.0 10.7 6.7 54 4.6 SSW 24 44 13 24 1021.3 - 8.0
21/06:30am 15.9 11.6 7.7 58 4.1 S 20 35 11 19 1020.9 - 8.0
21/06:00am 15.6 10.1 7.4 58 4.1 SSW 26 46 14 25 1020.4 - 8.0
21/05:30am 15.5 11.0 6.8 56 4.2 SSW 20 32 11 17 1020.1 1020.1 8.0
21/05:00am 15.5 9.8 6.8 56 4.3 SSW 26 48 14 26 1019.7 - 8.0
21/04:30am 15.7 11.9 7.7 59 4.0 S 17 24 9 13 1019.2 - 8.0
21/04:00am 15.9 11.0 7.1 56 4.3 SSW 22 37 12 20 1018.7 - 8.0
21/03:30am 15.6 10.5 6.1 53 4.6 SSW 22 41 12 22 1018.3 - 8.0
21/03:00am 15.7 10.1 7.2 57 4.2 SSW 26 54 14 29 1018.0 - 8.0
21/02:30am 14.7 10.2 8.6 67 3.1 SSW 22 46 12 25 1018.0 1018.0 8.0
21/02:06am 15.2 9.8 9.6 69 2.9 SSW 28 63 15 34 1017.8 - 7.8
21/02:00am 16.0 10.9 7.5 57 4.2 SSW 24 43 13 23 1017.9 - 7.8
21/01:30am 15.8 10.9 8.5 62 3.7 SSW 24 48 13 26 1017.9 - 7.8
21/01:00am 15.1 8.8 9.0 67 3.1 SSW 32 52 17 28 1018.0 - 7.8
21/12:42am 16.0 10.2 8.0 59 4.0 SSW 28 46 15 25 1017.8 - 7.8
21/12:30am 15.7 11.7 8.2 61 3.8 SSE 19 35 10 19 1017.8 - 7.8
21/12:00am 14.7 10.7 8.9 68 2.9 SSE 20 39 11 21 1017.8 - 7.8
 
Date/Time
EST
Temp
°C
App
Temp
°C
Dew
Point
°C
Rel
Hum
%
Delta-T
°C
Wind Press
QNH
hPa
Press
MSL
hPa
Rain since
9am
mm
Dir  Spd
km/h
Gust
km/h
Spd
kts
Gust
kts
20/11:30pm 16.1 11.4 7.8 58 4.2 SSW 22 54 12 29 1017.5 1017.5 7.4
20/11:00pm 16.1 10.5 8.8 62 3.7 SSW 28 46 15 25 1017.1 - 7.4
20/10:30pm 16.4 11.4 8.1 58 4.2 S 24 41 13 22 1016.8 - 7.4
20/10:00pm 16.4 10.8 8.6 60 4.0 SSW 28 41 15 22 1016.6 - 7.4
20/09:30pm 16.1 11.6 10.2 68 3.1 SSW 24 46 13 25 1016.3 - 7.2
20/09:00pm 17.0 13.1 9.4 61 4.0 S 20 33 11 18 1015.9 - 7.2
20/08:30pm 17.2 12.5 9.4 60 4.1 SSW 24 41 13 22 1015.8 1015.8 7.2
20/08:00pm 17.1 11.8 9.8 62 3.8 SSW 28 46 15 25 1015.5 - 7.2
20/07:30pm 17.0 12.3 9.4 61 4.0 SSW 24 48 13 26 1015.1 - 7.2
20/07:17pm 17.1 11.7 9.5 61 4.0 SSW 28 54 15 29 1014.9 - 7.2
20/07:00pm 17.0 12.5 10.1 64 3.6 S 24 41 13 22 1014.6 - 7.2
20/06:30pm 17.2 12.2 10.8 66 3.4 S 28 44 15 24 1014.2 - 7.2
20/06:00pm 17.1 13.2 10.9 67 3.3 SSE 22 37 12 20 1013.6 - 7.2
20/05:30pm 16.9 13.7 11.2 69 3.1 SE 19 33 10 18 1013.2 1013.2 7.2
20/05:00pm 17.4 15.5 12.9 75 2.5 SE 15 33 8 18 1012.5 - 7.2
20/04:30pm 17.7 17.0 14.4 81 1.9 SE 11 17 6 9 1011.6 - 7.2
20/04:00pm 17.6 15.4 14.5 82 1.8 SSW 19 32 10 17 1011.3 - 7.2
20/03:47pm 18.0 15.8 14.9 82 1.8 WSW 20 35 11 19 1011.2 - 7.0
20/03:30pm 19.7 18.7 16.7 83 1.8 W 17 24 9 13 1010.9 - 7.0
20/03:00pm 18.0 17.3 15.3 84 1.6 NW 13 20 7 11 1011.1 - 7.0
20/02:30pm 18.1 17.3 15.2 83 1.7 NW 13 20 7 11 1011.1 1011.1 7.0
20/02:00pm 18.3 16.9 14.6 79 2.1 WNW 15 22 8 12 1011.0 - 7.0
20/01:30pm 19.9 19.6 15.5 76 2.6 WNW 11 19 6 10 1010.6 - 7.0
20/01:00pm 18.1 17.7 14.0 77 2.3 N 9 13 5 7 1010.7 - 7.0
20/12:30pm 17.7 15.6 13.6 77 2.3 NNE 17 24 9 13 1011.0 - 7.0
20/12:00pm 17.4 16.2 13.9 80 2.0 N 13 20 7 11 1011.6 - 7.0
20/11:30am 16.8 14.8 13.9 83 1.6 N 17 28 9 15 1012.2 1012.2 7.0
20/11:11am 16.2 12.5 13.9 86 1.3 NNE 26 39 14 21 1010.9 - 7.0
20/11:00am 16.1 13.1 13.6 85 1.4 NNE 22 35 12 19 1013.1 - 5.8
20/10:30am 16.3 14.5 13.4 83 1.6 N 15 24 8 13 1014.0 - 3.2
20/10:00am 17.0 17.0 14.1 83 1.7 N 7 15 4 8 1014.1 - 1.6
20/09:30am 17.7 17.2 15.0 84 1.6 N 11 17 6 9 1014.0 - 0.6
20/09:00am 17.5 15.1 14.4 82 1.8 NNE 20 30 11 16 1013.2 - 0.2
20/08:30am 17.3 16.8 13.8 80 2.0 NNW 9 20 5 11 1013.5 1013.5 0.2
20/08:00am 18.1 16.8 14.8 81 1.9 NW 15 26 8 14 1014.1 - 0.0
20/07:30am 18.8 17.4 14.5 76 2.5 WNW 15 22 8 12 1014.3 - 0.0
20/07:00am 19.2 16.7 14.0 72 3.0 WNW 20 33 11 18 1014.4 - 0.0
20/06:30am 19.5 17.9 12.7 65 3.8 WNW 13 24 7 13 1013.8 - 0.0
20/06:00am 19.3 17.8 13.2 68 3.5 WNW 13 24 7 13 1013.9 - 0.0
20/05:30am 19.4 17.0 12.7 65 3.8 NW 17 26 9 14 1013.8 1013.8 0.0
20/05:00am 19.2 16.9 12.9 67 3.5 NW 17 26 9 14 1013.0 - 0.0
20/04:30am 18.7 18.3 12.9 69 3.3 N 7 19 4 10 1012.2 - 0.0
20/04:00am 18.4 17.1 12.6 69 3.2 N 11 19 6 10 1011.9 - 0.0
20/03:30am 18.5 17.2 12.5 68 3.3 N 11 20 6 11 1011.8 - 0.0
20/03:00am 18.6 16.9 12.4 67 3.5 NW 13 22 7 12 1012.7 - 0.0
20/02:30am 18.5 16.4 12.3 67 3.4 NW 15 22 8 12 1012.9 1012.9 0.0
20/02:00am 19.0 17.1 13.0 68 3.4 WNW 15 24 8 13 1013.3 - 0.0
20/01:30am 18.8 17.5 13.6 72 3.0 NW 13 20 7 11 1014.0 - 0.0
20/01:00am 18.8 17.5 13.6 72 3.0 NNW 13 24 7 13 1014.3 - 0.0
20/12:30am 18.7 17.8 13.8 73 2.8 NNW 11 30 6 16 1014.6 - 0.0
20/12:00am 18.6 17.4 13.9 74 2.7 N 13 22 7 12 1014.6 - 0.0
 
Date/Time
EST
Temp
°C
App
Temp
°C
Dew
Point
°C
Rel
Hum
%
Delta-T
°C
Wind Press
QNH
hPa
Press
MSL
hPa
Rain since
9am
mm
Dir  Spd
km/h
Gust
km/h
Spd
kts
Gust
kts
19/11:30pm 18.4 16.7 13.5 73 2.8 N 15 22 8 12 1014.8 1014.8 0.0
19/11:00pm 18.6 16.9 13.7 73 2.8 N 15 28 8 15 1014.8 - 0.0
19/10:30pm 18.6 17.2 13.5 72 2.9 NNW 13 26 7 14 1014.9 - 0.0
19/10:00pm 18.6 17.3 13.7 73 2.8 N 13 35 7 19 1015.2 - 0.0
19/09:30pm 18.4 17.0 13.3 72 2.9 N 13 28 7 15 1015.5 - 0.0
19/09:00pm 18.2 16.6 12.9 71 3.0 N 13 20 7 11 1015.7 - 0.0
19/08:30pm 18.3 17.4 12.7 70 3.1 N 9 19 5 10 1016.2 1016.2 0.0
19/08:00pm 18.2 16.9 12.6 70 3.1 N 11 22 6 12 1016.3 - 0.0
19/07:30pm 18.1 17.5 12.3 69 3.2 NW 7 15 4 8 1016.3 - 0.0
19/07:00pm 18.0 16.5 11.8 67 3.4 N 11 20 6 11 1016.1 - 0.0
19/06:30pm 17.8 16.5 11.4 66 3.5 N 9 20 5 11 1016.0 - 0.0
19/06:00pm 17.7 16.4 11.3 66 3.5 N 9 15 5 8 1015.6 - 0.0
19/05:30pm 17.6 15.8 10.9 65 3.6 N 11 19 6 10 1015.4 1015.4 0.0
19/05:00pm 18.1 15.6 11.2 64 3.7 N 15 22 8 12 1015.3 - 0.0

Other Formats:

Comma delimited format used in spreadsheet applications
http://www.bom.gov.au/fwo/IDN60801/IDN60801.94995.axf

JavaScript Object Notation format (JSON) in row-major order
http://www.bom.gov.au/fwo/IDN60801/IDN60801.94995.json